createdAt,value
2022-10-16T00:01:30.097Z,86.72
2022-10-16T00:04:00.274Z,86.77
2022-10-16T00:06:29.732Z,87.00
2022-10-16T00:08:58.523Z,86.98
2022-10-16T00:11:29.233Z,86.98
2022-10-16T00:14:00.138Z,86.87
2022-10-16T00:16:29.457Z,86.87
2022-10-16T00:18:58.041Z,86.83
2022-10-16T00:21:29.944Z,86.88
2022-10-16T00:24:01.012Z,87.08
2022-10-16T00:26:31.260Z,87.04
2022-10-16T00:29:00.027Z,87.21
2022-10-16T00:31:28.634Z,87.13
2022-10-16T00:33:57.469Z,87.08
2022-10-16T00:36:27.435Z,87.28
2022-10-16T00:38:57.923Z,87.28
2022-10-16T00:41:28.444Z,87.21
2022-10-16T00:43:58.097Z,87.49
2022-10-16T00:46:30.359Z,87.37
2022-10-16T00:49:03.789Z,87.35
2022-10-16T00:51:35.193Z,87.47
2022-10-16T00:54:05.280Z,87.43
2022-10-16T00:56:34.388Z,87.50
2022-10-16T00:59:07.313Z,87.42
2022-10-16T01:01:36.015Z,87.65
2022-10-16T01:04:04.997Z,87.68
2022-10-16T01:06:43.827Z,87.68
2022-10-16T01:09:18.465Z,87.82
2022-10-16T01:11:56.209Z,87.86
2022-10-16T01:14:32.804Z,87.87
2022-10-16T01:17:07.608Z,87.91
2022-10-16T01:20:02.357Z,87.99
2022-10-16T01:22:39.362Z,88.12
2022-10-16T01:25:17.329Z,88.11
2022-10-16T01:27:48.190Z,88.12
2022-10-16T01:30:21.957Z,88.13
2022-10-16T01:32:55.754Z,88.09
2022-10-16T01:35:28.478Z,88.02
2022-10-16T01:38:02.742Z,87.96
2022-10-16T01:40:34.221Z,87.95
2022-10-16T01:43:08.096Z,87.61
2022-10-16T01:45:37.772Z,87.60
2022-10-16T01:48:08.463Z,87.68
2022-10-16T01:50:40.531Z,87.61
2022-10-16T01:53:09.597Z,87.60
2022-10-16T01:55:45.403Z,87.65
2022-10-16T01:58:15.343Z,87.67
2022-10-16T02:00:47.391Z,87.55
2022-10-16T02:03:19.074Z,87.63
2022-10-16T02:05:51.545Z,87.73
2022-10-16T02:08:21.271Z,87.67
2022-10-16T02:10:49.676Z,87.50
2022-10-16T02:13:22.676Z,87.58
2022-10-16T02:15:51.449Z,87.65
2022-10-16T02:18:23.076Z,87.71
2022-10-16T02:20:58.048Z,87.77
2022-10-16T02:23:35.154Z,87.86
2022-10-16T02:26:07.805Z,87.81
2022-10-16T02:28:42.958Z,88.02
2022-10-16T02:31:16.814Z,87.86
2022-10-16T02:33:47.330Z,87.74
2022-10-16T02:36:16.194Z,87.59
2022-10-16T02:38:45.082Z,87.59
2022-10-16T02:41:14.553Z,87.59
2022-10-16T02:43:42.927Z,87.57
2022-10-16T02:46:11.403Z,87.31
2022-10-16T02:48:39.962Z,87.39
2022-10-16T02:51:08.594Z,87.39
2022-10-16T02:53:37.025Z,87.22
2022-10-16T02:56:05.979Z,87.35
2022-10-16T02:58:34.698Z,87.16
2022-10-16T03:01:03.449Z,87.27
2022-10-16T03:03:31.969Z,87.20
2022-10-16T03:06:00.714Z,87.04
2022-10-16T03:08:29.822Z,87.06
2022-10-16T03:10:58.217Z,87.05
2022-10-16T03:13:26.618Z,87.14
2022-10-16T03:15:55.146Z,87.12
2022-10-16T03:18:23.805Z,86.87
2022-10-16T03:20:52.213Z,86.73
2022-10-16T03:23:20.677Z,86.77
2022-10-16T03:25:49.117Z,86.54
2022-10-16T03:28:18.024Z,86.61
2022-10-16T03:30:46.501Z,86.64
2022-10-16T03:33:15.058Z,86.40
2022-10-16T03:35:43.445Z,86.45
2022-10-16T03:38:11.902Z,86.43
2022-10-16T03:40:40.293Z,86.41
2022-10-16T03:43:09.069Z,86.30
2022-10-16T03:45:37.825Z,86.21
2022-10-16T03:48:06.286Z,86.20
2022-10-16T03:50:34.796Z,86.16
2022-10-16T03:53:03.740Z,86.39
2022-10-16T03:55:32.176Z,86.34
2022-10-16T03:58:00.523Z,86.35
2022-10-16T04:00:29.619Z,86.56
2022-10-16T04:02:58.018Z,86.68
2022-10-16T04:05:26.708Z,86.57
2022-10-16T04:07:55.819Z,86.55
2022-10-16T04:10:24.263Z,86.67
2022-10-16T04:12:55.035Z,86.60
2022-10-16T04:15:23.732Z,86.49
2022-10-16T04:17:52.853Z,86.56
2022-10-16T04:20:21.600Z,86.35
2022-10-16T04:22:49.929Z,86.36
2022-10-16T04:25:18.422Z,86.34
2022-10-16T04:27:46.809Z,86.34
2022-10-16T04:30:15.453Z,86.34
2022-10-16T04:32:44.117Z,86.13
2022-10-16T04:35:12.577Z,86.07
2022-10-16T04:37:41.037Z,86.04
2022-10-16T04:40:10.745Z,86.03
2022-10-16T04:42:39.495Z,85.99
2022-10-16T04:45:12.157Z,86.15
2022-10-16T04:47:43.848Z,86.05
2022-10-16T04:50:12.339Z,86.14
2022-10-16T04:52:40.931Z,85.93
2022-10-16T04:55:10.284Z,86.08
2022-10-16T04:57:38.769Z,86.00
2022-10-16T05:00:09.466Z,85.88
2022-10-16T05:02:37.947Z,86.00
2022-10-16T05:05:08.843Z,85.97
2022-10-16T05:07:37.234Z,85.77
2022-10-16T05:10:07.432Z,85.92
2022-10-16T05:12:35.864Z,85.78
2022-10-16T05:15:05.929Z,85.97
2022-10-16T05:17:34.378Z,85.92
2022-10-16T05:20:03.601Z,85.79
2022-10-16T05:22:31.988Z,85.91
2022-10-16T05:25:00.347Z,85.95
2022-10-16T05:27:29.228Z,85.82
2022-10-16T05:29:57.772Z,85.78
2022-10-16T05:32:26.227Z,85.70
2022-10-16T05:34:54.620Z,85.72
2022-10-16T05:37:23.597Z,85.61
2022-10-16T05:39:52.376Z,85.56
2022-10-16T05:42:20.752Z,85.64
2022-10-16T05:44:49.221Z,85.64
2022-10-16T05:47:17.655Z,85.61
2022-10-16T05:49:46.440Z,85.47
2022-10-16T05:52:15.002Z,85.51
2022-10-16T05:54:43.921Z,85.39
2022-10-16T05:57:12.311Z,85.51
2022-10-16T05:59:40.663Z,85.51
2022-10-16T06:02:12.723Z,85.46
2022-10-16T06:04:40.240Z,85.58
2022-10-16T06:07:08.762Z,85.85
2022-10-16T06:09:37.232Z,85.94
2022-10-16T06:12:05.865Z,86.04
2022-10-16T06:14:34.711Z,86.40
2022-10-16T06:17:03.692Z,86.44
2022-10-16T06:19:32.321Z,86.37
2022-10-16T06:22:02.942Z,86.49
2022-10-16T06:24:31.367Z,86.45
2022-10-16T06:26:59.855Z,86.30
2022-10-16T06:29:36.407Z,86.21
2022-10-16T06:32:05.285Z,86.38
2022-10-16T06:34:35.183Z,86.26
2022-10-16T06:37:04.171Z,86.34
2022-10-16T06:39:32.714Z,86.32
2022-10-16T06:42:05.099Z,86.51
2022-10-16T06:44:38.830Z,86.34
2022-10-16T06:47:07.514Z,86.29
2022-10-16T06:49:36.506Z,86.27
2022-10-16T06:52:05.980Z,86.09
2022-10-16T06:54:42.112Z,86.29
2022-10-16T06:57:11.572Z,86.20
2022-10-16T06:59:43.063Z,86.21
2022-10-16T07:02:14.317Z,86.17
2022-10-16T07:04:42.676Z,86.13
2022-10-16T07:07:11.179Z,86.16
2022-10-16T07:09:40.870Z,86.29
2022-10-16T07:12:09.692Z,86.08
2022-10-16T07:14:38.248Z,85.94
2022-10-16T07:17:07.274Z,85.71
2022-10-16T07:19:36.189Z,85.47
2022-10-16T07:22:05.203Z,85.38
2022-10-16T07:24:33.890Z,85.33
2022-10-16T07:27:02.574Z,85.10
2022-10-16T07:29:33.569Z,84.85
2022-10-16T07:32:03.536Z,84.57
2022-10-16T07:34:32.009Z,84.00
2022-10-16T07:37:00.585Z,83.93
2022-10-16T07:39:29.867Z,83.80
2022-10-16T07:41:58.727Z,83.83
2022-10-16T07:44:27.197Z,83.45
2022-10-16T07:46:56.043Z,83.12
2022-10-16T07:49:24.569Z,83.01
2022-10-16T07:51:53.022Z,82.81
2022-10-16T07:54:22.372Z,82.79
2022-10-16T07:56:51.084Z,82.67
2022-10-16T07:59:20.137Z,82.43
2022-10-16T08:01:50.603Z,82.14
2022-10-16T08:04:19.523Z,81.58
2022-10-16T08:06:50.191Z,81.02
2022-10-16T08:09:18.929Z,80.75
2022-10-16T08:11:47.663Z,80.70
2022-10-16T08:14:16.155Z,80.20
2022-10-16T08:16:45.339Z,80.10
2022-10-16T08:19:14.354Z,79.90
2022-10-16T08:21:43.078Z,79.82
2022-10-16T08:24:12.805Z,79.44
2022-10-16T08:26:41.577Z,79.27
2022-10-16T08:29:09.974Z,79.05
2022-10-16T08:31:45.058Z,78.98
2022-10-16T08:34:13.880Z,78.35
2022-10-16T08:36:42.647Z,78.44
2022-10-16T08:39:11.582Z,77.85
2022-10-16T08:42:16.930Z,77.34
2022-10-16T08:45:16.361Z,76.78
2022-10-16T08:47:50.852Z,75.57
2022-10-16T08:50:25.437Z,74.36
2022-10-16T08:53:00.132Z,74.05
2022-10-16T08:55:35.559Z,73.18
2022-10-16T08:58:13.170Z,73.08
2022-10-16T09:00:46.176Z,72.29
2022-10-16T09:03:25.320Z,71.04
2022-10-16T09:06:18.997Z,71.04
2022-10-16T09:08:58.744Z,71.59
2022-10-16T09:11:37.068Z,71.36
2022-10-16T09:14:22.194Z,70.78
2022-10-16T09:16:57.008Z,71.01
2022-10-16T09:19:31.386Z,70.98
2022-10-16T09:22:03.134Z,71.28
2022-10-16T09:24:31.458Z,71.48
2022-10-16T09:27:00.466Z,71.70
2022-10-16T09:29:29.329Z,71.90
2022-10-16T09:32:12.399Z,71.86
2022-10-16T09:34:46.333Z,71.75
2022-10-16T09:37:18.767Z,71.83
2022-10-16T09:39:53.020Z,71.87
2022-10-16T09:42:26.031Z,72.25
2022-10-16T09:44:55.147Z,72.19
2022-10-16T09:47:26.833Z,72.12
2022-10-16T09:50:00.191Z,72.36
2022-10-16T09:52:29.649Z,72.18
2022-10-16T09:54:59.799Z,71.05
2022-10-16T09:57:28.772Z,70.48
2022-10-16T09:59:59.263Z,70.08
2022-10-16T10:02:31.011Z,69.71
2022-10-16T10:04:59.416Z,69.41
2022-10-16T10:07:33.433Z,68.29
2022-10-16T10:10:05.431Z,68.10
2022-10-16T10:12:36.842Z,67.96
2022-10-16T10:15:07.177Z,67.89
2022-10-16T10:17:46.103Z,68.23
2022-10-16T10:20:24.808Z,68.56
2022-10-16T10:22:53.295Z,67.83
2022-10-16T10:25:38.320Z,68.08
2022-10-16T10:28:36.255Z,68.35
2022-10-16T10:31:14.306Z,68.47
2022-10-16T10:33:47.496Z,68.82
2022-10-16T10:36:28.542Z,68.16
2022-10-16T10:39:01.009Z,67.97
2022-10-16T10:41:55.245Z,67.44
2022-10-16T10:44:36.972Z,67.20
2022-10-16T10:47:14.312Z,66.67
2022-10-16T10:49:57.324Z,66.61
2022-10-16T10:52:42.365Z,67.23
2022-10-16T10:55:20.787Z,67.56
2022-10-16T10:58:06.908Z,67.64
2022-10-16T11:00:46.658Z,67.27
2022-10-16T11:03:35.874Z,67.58
2022-10-16T11:06:09.897Z,67.68
2022-10-16T11:08:43.088Z,67.12
2022-10-16T11:11:15.976Z,67.46
2022-10-16T11:13:55.644Z,67.38
2022-10-16T11:16:29.208Z,67.33
2022-10-16T11:19:03.887Z,66.72
2022-10-16T11:21:43.103Z,66.23
2022-10-16T11:24:19.923Z,66.05
2022-10-16T11:26:50.494Z,65.97
2022-10-16T11:29:24.316Z,65.99
2022-10-16T11:31:56.512Z,66.39
2022-10-16T11:34:32.888Z,66.13
2022-10-16T11:37:11.367Z,66.23
2022-10-16T11:39:42.267Z,65.80
2022-10-16T11:42:14.170Z,65.71
2022-10-16T11:44:55.853Z,65.99
2022-10-16T11:50:29.787Z,66.28
2022-10-16T11:53:10.094Z,66.17
2022-10-16T11:55:44.544Z,65.99
2022-10-16T11:58:23.442Z,65.39
2022-10-16T12:00:59.380Z,65.30
2022-10-16T12:03:34.098Z,65.25
2022-10-16T12:06:31.549Z,65.36
2022-10-16T12:09:01.681Z,65.63
2022-10-16T12:11:36.897Z,65.76
2022-10-16T12:14:22.195Z,65.91
2022-10-16T12:16:56.046Z,65.89
2022-10-16T12:19:26.913Z,65.78
2022-10-16T12:21:58.458Z,66.04
2022-10-16T12:24:38.305Z,66.43
2022-10-16T12:27:22.617Z,66.77
2022-10-16T12:29:57.097Z,66.95
2022-10-16T12:32:47.189Z,67.18
2022-10-16T12:35:23.155Z,67.41
2022-10-16T12:37:56.767Z,67.46
2022-10-16T12:40:30.347Z,67.52
2022-10-16T12:43:11.826Z,67.79
2022-10-16T12:45:41.208Z,67.83
2022-10-16T12:48:29.167Z,67.65
2022-10-16T12:51:13.627Z,67.73
2022-10-16T12:53:42.299Z,67.79
2022-10-16T12:56:22.974Z,67.96
2022-10-16T12:59:05.880Z,68.17
2022-10-16T13:01:49.560Z,68.33
2022-10-16T13:04:37.308Z,68.48
2022-10-16T13:07:24.579Z,68.33
2022-10-16T13:10:07.210Z,68.50
2022-10-16T13:13:02.153Z,68.30
2022-10-16T13:15:44.818Z,68.34
2022-10-16T13:18:19.284Z,68.61
2022-10-16T13:21:10.079Z,68.72
2022-10-16T13:26:32.004Z,67.89
2022-10-16T13:29:02.325Z,67.67
2022-10-16T13:31:39.372Z,67.17
2022-10-16T13:34:15.231Z,67.34
2022-10-16T13:36:48.124Z,67.33
2022-10-16T13:39:22.116Z,67.28
2022-10-16T13:42:06.396Z,67.29
2022-10-16T13:44:43.419Z,67.40
2022-10-16T13:47:19.390Z,67.53
2022-10-16T13:49:59.384Z,67.64
2022-10-16T13:52:28.365Z,67.85
2022-10-16T13:55:00.934Z,67.95
2022-10-16T13:57:30.876Z,68.31
2022-10-16T13:59:59.573Z,68.33
2022-10-16T14:02:32.649Z,68.17
2022-10-16T14:05:02.604Z,68.24
2022-10-16T14:11:24.233Z,68.73
2022-10-16T14:13:53.879Z,69.11
2022-10-16T14:16:25.373Z,69.16
2022-10-16T14:18:59.154Z,69.49
2022-10-16T14:21:28.536Z,69.33
2022-10-16T14:23:57.306Z,69.21
2022-10-16T14:26:28.484Z,69.14
2022-10-16T14:29:14.791Z,69.16
2022-10-16T14:31:43.639Z,69.27
2022-10-16T14:34:28.899Z,69.55
2022-10-16T14:36:59.193Z,69.56
2022-10-16T14:39:27.985Z,69.76
2022-10-16T14:41:58.877Z,69.76
2022-10-16T14:44:32.876Z,69.87
2022-10-16T14:47:10.105Z,70.02
2022-10-16T14:49:38.464Z,70.03
2022-10-16T14:52:10.914Z,70.21
2022-10-16T14:54:39.640Z,70.03
2022-10-16T14:57:18.528Z,70.18
2022-10-16T14:59:47.797Z,70.28
2022-10-16T15:02:25.778Z,70.37
2022-10-16T15:04:54.501Z,70.39
2022-10-16T15:07:23.186Z,70.45
2022-10-16T15:09:52.596Z,70.57
2022-10-16T15:12:21.372Z,70.74
2022-10-16T15:14:49.859Z,70.79
2022-10-16T15:17:21.384Z,70.92
2022-10-16T15:19:51.598Z,70.91
2022-10-16T15:22:21.078Z,71.00
2022-10-16T15:24:49.525Z,71.04
2022-10-16T15:27:17.859Z,71.15
2022-10-16T15:29:46.317Z,71.40
2022-10-16T15:32:14.813Z,71.48
2022-10-16T15:34:43.475Z,71.55
2022-10-16T15:37:13.981Z,71.66
2022-10-16T15:39:42.774Z,71.85
2022-10-16T15:42:11.222Z,72.05
2022-10-16T15:44:39.603Z,72.09
2022-10-16T15:47:09.660Z,72.22
2022-10-16T15:49:38.218Z,72.34
2022-10-16T15:52:06.611Z,72.46
2022-10-16T15:54:35.596Z,72.74
2022-10-16T15:57:04.297Z,72.78
2022-10-16T15:59:32.894Z,72.91
2022-10-16T16:02:01.495Z,73.10
2022-10-16T16:04:43.418Z,73.34
2022-10-16T16:07:12.792Z,73.41
2022-10-16T16:09:41.432Z,73.53
2022-10-16T16:12:10.118Z,73.78
2022-10-16T16:14:39.224Z,73.94
2022-10-16T16:17:08.338Z,74.01
2022-10-16T16:19:36.926Z,74.05
2022-10-16T16:22:09.547Z,74.29
2022-10-16T16:24:41.582Z,74.42
2022-10-16T16:27:10.369Z,74.49
2022-10-16T16:29:38.808Z,74.54
2022-10-16T16:32:07.941Z,74.41
2022-10-16T16:34:36.600Z,74.31
2022-10-16T16:37:15.295Z,74.35
2022-10-16T16:39:44.165Z,74.33
2022-10-16T16:42:12.820Z,74.26
2022-10-16T16:44:41.323Z,74.10
2022-10-16T16:47:11.385Z,74.12
2022-10-16T16:49:40.763Z,74.04
2022-10-16T16:52:09.327Z,74.06
2022-10-16T16:54:38.026Z,73.95
2022-10-16T16:57:07.740Z,73.94
2022-10-16T16:59:36.298Z,74.20
2022-10-16T17:02:05.251Z,74.08
2022-10-16T17:04:34.562Z,74.14
2022-10-16T17:07:03.072Z,74.17
2022-10-16T17:09:33.392Z,74.16
2022-10-16T17:12:01.862Z,74.14
2022-10-16T17:14:30.387Z,74.12
2022-10-16T17:16:59.454Z,73.98
2022-10-16T17:19:34.357Z,74.18
2022-10-16T17:22:04.239Z,74.21
2022-10-16T17:24:34.204Z,74.16
2022-10-16T17:27:07.063Z,74.17
2022-10-16T17:29:36.189Z,74.19
2022-10-16T17:32:06.204Z,74.32
2022-10-16T17:34:35.907Z,74.41
2022-10-16T17:37:04.649Z,74.26
2022-10-16T17:39:33.110Z,74.41
2022-10-16T17:42:02.530Z,74.37
2022-10-16T17:44:35.238Z,74.32
2022-10-16T17:47:03.926Z,74.36
2022-10-16T17:49:35.736Z,74.40
2022-10-16T17:52:08.783Z,74.38
2022-10-16T17:54:40.558Z,74.37
2022-10-16T17:57:10.190Z,74.43
2022-10-16T17:59:41.277Z,74.38
2022-10-16T18:02:11.569Z,74.17
2022-10-16T18:04:40.769Z,74.15
2022-10-16T18:07:09.491Z,74.37
2022-10-16T18:09:49.568Z,74.58
2022-10-16T18:12:37.635Z,75.06
2022-10-16T18:15:17.217Z,75.23
2022-10-16T18:17:50.796Z,75.31
2022-10-16T18:20:20.270Z,75.46
2022-10-16T18:22:52.816Z,75.61
2022-10-16T18:25:25.303Z,75.91
2022-10-16T18:27:56.207Z,75.83
2022-10-16T18:30:28.294Z,75.96
2022-10-16T18:33:03.674Z,76.18
2022-10-16T18:35:36.449Z,76.23
2022-10-16T18:38:13.458Z,76.13
2022-10-16T18:40:50.693Z,76.42
2022-10-16T18:43:26.778Z,76.22
2022-10-16T18:46:05.320Z,76.48
2022-10-16T18:48:37.570Z,76.30
2022-10-16T18:51:19.303Z,76.45
2022-10-16T18:53:53.570Z,76.41
2022-10-16T18:56:32.721Z,76.55
2022-10-16T18:59:07.246Z,76.69
2022-10-16T19:01:39.357Z,76.83
2022-10-16T19:04:18.157Z,77.06
2022-10-16T19:06:55.451Z,77.30
2022-10-16T19:09:29.907Z,77.45
2022-10-16T19:12:05.324Z,77.61
2022-10-16T19:14:43.747Z,77.71
2022-10-16T19:17:18.805Z,77.89
2022-10-16T19:19:56.424Z,78.13
2022-10-16T19:22:51.526Z,78.00
2022-10-16T19:25:28.456Z,78.12
2022-10-16T19:28:10.990Z,78.26
2022-10-16T19:30:48.753Z,78.08
2022-10-16T19:33:19.871Z,77.98
2022-10-16T19:35:51.649Z,77.97
2022-10-16T19:38:22.407Z,78.07
2022-10-16T19:40:52.331Z,77.79
2022-10-16T19:43:34.136Z,77.97
2022-10-16T19:46:12.536Z,77.94
2022-10-16T19:48:54.573Z,77.87
2022-10-16T19:51:26.998Z,78.13
2022-10-16T19:54:01.634Z,77.96
2022-10-16T19:56:33.529Z,78.11
2022-10-16T19:59:04.298Z,78.20
2022-10-16T20:01:33.721Z,78.11
2022-10-16T20:04:06.297Z,78.15
2022-10-16T20:06:35.176Z,78.10
2022-10-16T20:09:04.118Z,78.08
2022-10-16T20:11:34.359Z,78.08
2022-10-16T20:14:04.063Z,78.20
2022-10-16T20:16:33.125Z,78.05
2022-10-16T20:19:02.851Z,78.22
2022-10-16T20:21:33.057Z,78.10
2022-10-16T20:24:04.438Z,78.06
2022-10-16T20:26:33.480Z,78.07
2022-10-16T20:29:01.954Z,78.15
2022-10-16T20:31:32.656Z,77.91
2022-10-16T20:34:03.991Z,78.09
2022-10-16T20:36:34.082Z,77.97
2022-10-16T20:39:04.143Z,77.85
2022-10-16T20:41:32.831Z,77.62
2022-10-16T20:44:01.564Z,77.51
2022-10-16T20:46:30.203Z,77.35
2022-10-16T20:49:06.121Z,77.11
2022-10-16T20:51:39.843Z,77.18
2022-10-16T20:54:11.033Z,76.84
2022-10-16T20:56:39.968Z,76.92
2022-10-16T20:59:08.423Z,76.84
2022-10-16T21:01:37.082Z,76.92
2022-10-16T21:04:08.150Z,76.97
2022-10-16T21:06:38.667Z,76.79
2022-10-16T21:09:07.549Z,76.91
2022-10-16T21:11:36.683Z,76.80
2022-10-16T21:14:07.250Z,76.79
2022-10-16T21:16:36.258Z,76.73
2022-10-16T21:19:04.916Z,76.72
2022-10-16T21:21:37.100Z,76.95
2022-10-16T21:24:06.859Z,76.74
2022-10-16T21:26:35.368Z,76.74
2022-10-16T21:29:06.579Z,76.79
2022-10-16T21:31:35.475Z,76.84
2022-10-16T21:34:04.486Z,76.90
2022-10-16T21:36:35.857Z,76.88
2022-10-16T21:39:05.931Z,77.11
2022-10-16T21:41:35.946Z,77.31
2022-10-16T21:44:05.509Z,77.36
2022-10-16T21:46:35.880Z,77.58
2022-10-16T21:49:06.908Z,77.48
2022-10-16T21:51:38.163Z,77.52
2022-10-16T21:54:09.988Z,77.57
2022-10-16T21:56:39.236Z,77.61
2022-10-16T21:59:08.167Z,77.58
2022-10-16T22:01:36.544Z,77.48
2022-10-16T22:04:04.994Z,77.53
2022-10-16T22:06:33.398Z,77.50
2022-10-16T22:09:01.842Z,77.45
2022-10-16T22:11:35.972Z,77.38
2022-10-16T22:14:05.795Z,77.38
2022-10-16T22:16:35.171Z,77.42
2022-10-16T22:19:06.540Z,77.29
2022-10-16T22:21:35.631Z,77.21
2022-10-16T22:24:05.413Z,77.16
2022-10-16T22:26:34.507Z,77.05
2022-10-16T22:29:03.283Z,77.00
2022-10-16T22:31:32.424Z,77.00
2022-10-16T22:34:02.409Z,76.79
2022-10-16T22:36:31.799Z,76.85
2022-10-16T22:39:00.722Z,76.71
2022-10-16T22:41:29.378Z,76.77
2022-10-16T22:43:57.938Z,76.77
2022-10-16T22:46:28.153Z,76.69
2022-10-16T22:48:57.295Z,76.50
2022-10-16T22:51:28.523Z,76.64
2022-10-16T22:53:57.940Z,76.64
2022-10-16T22:56:27.089Z,76.82
2022-10-16T22:58:55.554Z,76.69
2022-10-16T23:01:26.686Z,76.62
2022-10-16T23:03:55.241Z,76.80
2022-10-16T23:06:23.593Z,76.79
2022-10-16T23:08:52.885Z,76.80
2022-10-16T23:11:22.102Z,76.74
2022-10-16T23:13:50.772Z,76.73
2022-10-16T23:16:21.273Z,76.67
2022-10-16T23:18:50.086Z,76.62
2022-10-16T23:21:20.315Z,76.83
2022-10-16T23:23:50.067Z,76.58
2022-10-16T23:26:20.311Z,76.62
2022-10-16T23:28:48.997Z,76.68
2022-10-16T23:31:17.811Z,76.71
2022-10-16T23:33:46.127Z,76.52
2022-10-16T23:36:17.544Z,76.65
2022-10-16T23:38:47.123Z,76.60
2022-10-16T23:41:16.383Z,76.66
2022-10-16T23:43:44.734Z,76.77
2022-10-16T23:46:14.623Z,76.72
2022-10-16T23:48:43.548Z,76.79
2022-10-16T23:51:12.398Z,76.88
2022-10-16T23:53:41.394Z,76.76
2022-10-16T23:56:10.098Z,76.94
2022-10-16T23:58:38.565Z,76.71
